CDT,Max TemperatureF,Mean TemperatureF,Min TemperatureF,Max Dew PointF,MeanDew PointF,Min DewpointF,Max Humidity, Mean Humidity, Min Humidity, Max Sea Level PressureIn, Mean Sea Level PressureIn, Min Sea Level PressureIn, Max VisibilityMiles, Mean VisibilityMiles, Min VisibilityMiles, Max Wind SpeedMPH, Mean Wind SpeedMPH, Max Gust SpeedMPH,PrecipitationIn, CloudCover, Events, WindDirDegrees
2012-9-1,89,74,59,64,59,52,82,58,40,30.06,30.01,29.95,10,10,10,9,4,,0.00,0,,104
2012-9-2,91,73,55,63,61,55,100,61,36,29.99,29.91,29.82,10,10,10,14,6,20,0.00,0,,174
2012-9-3,86,74,62,66,63,54,100,70,35,29.94,29.89,29.86,10,10,10,8,3,,0.00,0,Rain,167
2012-9-4,93,78,62,68,61,55,94,60,30,29.95,29.82,29.67,10,10,2,33,7,48,0.88,1,Rain,131
2012-9-5,80,65,50,61,53,39,100,67,24,29.97,29.88,29.76,10,10,7,17,7,25,0.00,0,,1
2012-9-6,84,64,44,57,47,43,100,58,23,30.02,29.90,29.76,10,10,10,18,4,24,0.00,1,,153
2012-9-7,73,60,46,61,50,41,94,64,33,30.13,30.00,29.77,10,10,10,17,8,22,0.00,2,Rain,7
2012-9-8,82,60,39,48,41,37,100,55,20,30.14,30.06,29.93,10,10,10,22,5,30,0.00,0,,325
2012-9-9,75,57,39,48,44,39,100,62,31,30.25,30.16,30.09,10,10,7,6,2,,0.00,0,,138
2012-9-10,84,64,44,50,46,43,100,53,27,30.10,29.95,29.82,10,10,10,26,9,36,0.00,0,,188
2012-9-11,93,78,62,52,48,45,68,39,19,29.87,29.81,29.75,10,10,7,25,15,34,0.00,0,,194
2012-9-12,77,65,53,54,46,37,94,64,36,30.31,30.13,29.87,10,10,7,15,7,23,0.27,4,Rain,38
2012-9-13,75,60,44,55,47,36,100,72,25,30.40,30.34,30.30,10,7,0,9,2,9,0.00,2,Fog,223
2012-9-14,80,63,46,52,45,39,93,58,23,30.32,30.27,30.20,10,10,4,10,4,,0.00,0,,201
2012-9-15,80,64,48,54,43,36,87,50,21,30.23,30.14,30.03,10,10,10,21,11,25,0.00,0,,197
2012-9-16,78,66,53,57,55,52,100,74,39,30.03,29.96,29.87,10,9,5,14,8,20,0.00,1,,194
2012-9-17,66,55,42,57,42,30,93,62,30,30.08,30.02,29.93,10,10,10,17,8,26,0.13,3,Rain,11
2012-9-18,66,50,33,39,34,30,100,61,28,30.10,30.02,29.87,10,10,5,12,2,,0.00,1,,180
2012-9-19,78,63,48,46,36,27,82,45,19,29.99,29.85,29.76,10,10,10,29,11,38,0.00,0,,265
2012-9-20,69,56,42,39,30,27,62,40,21,30.05,29.99,29.91,10,10,7,15,3,23,0.00,0,,307
2012-9-21,71,58,44,43,36,30,87,47,22,29.97,29.87,29.80,10,10,10,18,5,29,0.00,1,,353
2012-9-22,60,45,30,34,27,21,87,52,23,30.30,30.22,29.97,10,10,10,16,8,24,0.00,0,,344
2012-9-23,64,44,24,32,27,23,93,55,24,30.36,30.28,30.18,10,10,7,8,1,,0.00,0,,145
2012-9-24,77,56,35,41,35,27,81,51,24,30.18,29.98,29.83,10,10,10,18,5,22,0.00,0,,209
2012-9-25,82,60,37,43,38,34,100,57,17,29.94,29.86,29.82,10,10,7,10,1,,0.00,0,,31
2012-9-26,71,54,37,36,29,21,81,46,15,30.18,30.09,29.96,10,9,2,10,3,16,0.00,0,,30
2012-9-27,73,50,28,37,29,21,93,53,14,30.24,30.18,30.13,10,9,4,7,1,,0.00,0,,44
2012-9-28,75,52,30,37,31,25,93,55,15,30.21,30.16,30.11,10,9,1,6,1,,0.00,0,,126
2012-9-29,80,58,35,43,36,30,87,55,18,30.17,30.11,30.03,10,9,7,8,1,,0.00,0,,201
2012-9-30,80,58,37,43,39,34,93,59,23,30.05,29.97,29.91,10,10,7,7,1,,0.00,0,,227